Main page
METAR-TAF:

METAR-TAF

Airports :

Al Najaf International Airport

Najaf, Iraq

latitude: 31-59-23N, longitude: 44-24-15E, elevation: 31 m

Current weather observation

The report was made 32 minutes ago, at 15:00 UTC
Wind 15 kt from the North/Northwest
Temperature 47°C
Humidity 9%
Pressure 996 hPa
Visibility: 8000 m

METAR: ORNI 121500Z 34015KT 8000 NSC 47/07 Q0996

Time: 18:32 (15:32 UTC)


TAF: missing

Weather observations and forecasts of more than 4000 airports (METAR and TAF reports).

The available stations are represented by yellow and red dots on the map.

Hover mouse over dot to see the name of the station.

Then click to see weather observations and forecasts.

To change the map : click on the green buttons with a black cross to zoom in, on the green button with a dash to zoom out, or on the green arrows for adjacent maps.


METAR-TAF: